sensor_id;sensor_type;location;lat;lon;timestamp;temperature;humidity
74513;DHT22;62992;52.052;8.550;2023-11-22T00:00:24;3.20;99.90
74513;DHT22;62992;52.052;8.550;2023-11-22T00:03:08;3.30;99.90
74513;DHT22;62992;52.052;8.550;2023-11-22T00:05:53;3.30;99.90
74513;DHT22;62992;52.052;8.550;2023-11-22T00:08:37;3.10;99.90
74513;DHT22;62992;52.052;8.550;2023-11-22T00:11:21;3.10;99.90
74513;DHT22;62992;52.052;8.550;2023-11-22T00:14:05;3.10;99.90
74513;DHT22;62992;52.052;8.550;2023-11-22T00:16:50;3.10;99.90
74513;DHT22;62992;52.052;8.550;2023-11-22T00:19:34;3.10;99.90
74513;DHT22;62992;52.052;8.550;2023-11-22T00:22:18;3.20;99.90
74513;DHT22;62992;52.052;8.550;2023-11-22T00:25:03;3.10;99.90
74513;DHT22;62992;52.052;8.550;2023-11-22T00:27:47;3.10;99.90
74513;DHT22;62992;52.052;8.550;2023-11-22T00:30:31;3.00;99.90
74513;DHT22;62992;52.052;8.550;2023-11-22T00:33:16;3.00;99.90
74513;DHT22;62992;52.052;8.550;2023-11-22T00:36:03;3.00;99.90
74513;DHT22;62992;52.052;8.550;2023-11-22T00:38:48;2.90;99.90
74513;DHT22;62992;52.052;8.550;2023-11-22T00:41:32;2.90;99.90
74513;DHT22;62992;52.052;8.550;2023-11-22T00:44:16;2.90;99.90
74513;DHT22;62992;52.052;8.550;2023-11-22T00:47:00;2.80;99.90
74513;DHT22;62992;52.052;8.550;2023-11-22T00:49:44;2.90;99.90
74513;DHT22;62992;52.052;8.550;2023-11-22T00:52:29;3.00;99.90
74513;DHT22;62992;52.052;8.550;2023-11-22T00:55:13;3.10;99.90
74513;DHT22;62992;52.052;8.550;2023-11-22T00:57:57;3.10;99.90
74513;DHT22;62992;52.052;8.550;2023-11-22T01:00:47;3.20;99.90
74513;DHT22;62992;52.052;8.550;2023-11-22T01:03:32;3.30;99.90
74513;DHT22;62992;52.052;8.550;2023-11-22T01:06:16;3.20;99.90
74513;DHT22;62992;52.052;8.550;2023-11-22T01:09:02;3.20;99.90
74513;DHT22;62992;52.052;8.550;2023-11-22T01:11:46;3.10;99.90
74513;DHT22;62992;52.052;8.550;2023-11-22T01:14:31;3.00;99.90
74513;DHT22;62992;52.052;8.550;2023-11-22T01:17:15;3.00;99.90
74513;DHT22;62992;52.052;8.550;2023-11-22T01:20:00;3.00;99.90
74513;DHT22;62992;52.052;8.550;2023-11-22T01:22:44;3.00;99.90
74513;DHT22;62992;52.052;8.550;2023-11-22T01:25:28;2.90;99.90
74513;DHT22;62992;52.052;8.550;2023-11-22T01:28:12;2.80;99.90
74513;DHT22;62992;52.052;8.550;2023-11-22T01:30:56;2.80;99.90
74513;DHT22;62992;52.052;8.550;2023-11-22T01:33:40;2.70;99.90
74513;DHT22;62992;52.052;8.550;2023-11-22T01:36:24;2.70;99.90
74513;DHT22;62992;52.052;8.550;2023-11-22T01:39:10;2.60;99.90
74513;DHT22;62992;52.052;8.550;2023-11-22T01:41:55;2.60;99.90
74513;DHT22;62992;52.052;8.550;2023-11-22T01:44:40;2.60;99.90
74513;DHT22;62992;52.052;8.550;2023-11-22T01:47:25;2.50;99.90
74513;DHT22;62992;52.052;8.550;2023-11-22T01:50:10;2.40;99.90
74513;DHT22;62992;52.052;8.550;2023-11-22T01:52:54;2.40;99.90
74513;DHT22;62992;52.052;8.550;2023-11-22T01:55:39;2.40;99.90
74513;DHT22;62992;52.052;8.550;2023-11-22T01:58:23;2.30;99.90
74513;DHT22;62992;52.052;8.550;2023-11-22T02:01:07;2.30;99.90
74513;DHT22;62992;52.052;8.550;2023-11-22T02:03:52;2.30;99.90
74513;DHT22;62992;52.052;8.550;2023-11-22T02:06:37;2.20;99.90
74513;DHT22;62992;52.052;8.550;2023-11-22T02:09:21;2.20;99.90
74513;DHT22;62992;52.052;8.550;2023-11-22T02:12:06;2.00;99.90
74513;DHT22;62992;52.052;8.550;2023-11-22T02:14:50;2.00;99.90
74513;DHT22;62992;52.052;8.550;2023-11-22T02:17:35;2.00;99.90
74513;DHT22;62992;52.052;8.550;2023-11-22T02:20:19;2.00;99.90
74513;DHT22;62992;52.052;8.550;2023-11-22T02:23:07;2.00;99.90
74513;DHT22;62992;52.052;8.550;2023-11-22T02:25:52;2.00;99.90
74513;DHT22;62992;52.052;8.550;2023-11-22T02:28:36;2.00;99.90
74513;DHT22;62992;52.052;8.550;2023-11-22T02:31:21;1.90;99.90
74513;DHT22;62992;52.052;8.550;2023-11-22T02:34:06;1.90;99.90
74513;DHT22;62992;52.052;8.550;2023-11-22T02:36:50;1.90;99.90
74513;DHT22;62992;52.052;8.550;2023-11-22T02:39:48;1.80;99.90
74513;DHT22;62992;52.052;8.550;2023-11-22T02:42:37;1.60;99.90
74513;DHT22;62992;52.052;8.550;2023-11-22T02:45:26;1.60;99.90
74513;DHT22;62992;52.052;8.550;2023-11-22T02:48:10;1.70;99.90
74513;DHT22;62992;52.052;8.550;2023-11-22T02:50:54;1.60;99.90
74513;DHT22;62992;52.052;8.550;2023-11-22T02:53:39;1.60;99.90
74513;DHT22;62992;52.052;8.550;2023-11-22T02:56:26;1.60;99.90
74513;DHT22;62992;52.052;8.550;2023-11-22T02:59:10;1.60;99.90
74513;DHT22;62992;52.052;8.550;2023-11-22T03:01:57;1.60;99.90
74513;DHT22;62992;52.052;8.550;2023-11-22T03:04:41;1.60;99.90
74513;DHT22;62992;52.052;8.550;2023-11-22T03:07:25;1.60;99.90
74513;DHT22;62992;52.052;8.550;2023-11-22T03:10:09;1.60;99.90
74513;DHT22;62992;52.052;8.550;2023-11-22T03:12:54;1.60;99.90
74513;DHT22;62992;52.052;8.550;2023-11-22T03:15:38;1.50;99.90
74513;DHT22;62992;52.052;8.550;2023-11-22T03:18:22;1.50;99.90
74513;DHT22;62992;52.052;8.550;2023-11-22T03:21:06;1.40;99.90
74513;DHT22;62992;52.052;8.550;2023-11-22T03:23:50;1.50;99.90
74513;DHT22;62992;52.052;8.550;2023-11-22T03:26:35;1.50;99.90
74513;DHT22;62992;52.052;8.550;2023-11-22T03:29:19;1.50;99.90
74513;DHT22;62992;52.052;8.550;2023-11-22T03:32:03;1.50;99.90
74513;DHT22;62992;52.052;8.550;2023-11-22T03:34:47;1.50;99.90
74513;DHT22;62992;52.052;8.550;2023-11-22T03:37:32;1.50;99.90
74513;DHT22;62992;52.052;8.550;2023-11-22T03:40:16;1.50;99.90
74513;DHT22;62992;52.052;8.550;2023-11-22T03:43:00;1.50;99.90
74513;DHT22;62992;52.052;8.550;2023-11-22T03:45:44;1.50;99.90
74513;DHT22;62992;52.052;8.550;2023-11-22T03:48:29;1.50;99.90
74513;DHT22;62992;52.052;8.550;2023-11-22T03:51:13;1.50;99.90
74513;DHT22;62992;52.052;8.550;2023-11-22T03:53:57;1.50;99.90
74513;DHT22;62992;52.052;8.550;2023-11-22T03:56:41;1.40;99.90
74513;DHT22;62992;52.052;8.550;2023-11-22T03:59:26;1.30;99.90
74513;DHT22;62992;52.052;8.550;2023-11-22T04:02:10;1.40;99.90
74513;DHT22;62992;52.052;8.550;2023-11-22T04:04:54;1.10;99.90
74513;DHT22;62992;52.052;8.550;2023-11-22T04:07:38;1.20;99.90
74513;DHT22;62992;52.052;8.550;2023-11-22T04:10:23;1.20;99.90
74513;DHT22;62992;52.052;8.550;2023-11-22T04:13:07;1.20;99.90
74513;DHT22;62992;52.052;8.550;2023-11-22T04:15:51;1.30;99.90
74513;DHT22;62992;52.052;8.550;2023-11-22T04:18:35;1.20;99.90
74513;DHT22;62992;52.052;8.550;2023-11-22T04:21:20;1.20;99.90
74513;DHT22;62992;52.052;8.550;2023-11-22T04:24:04;1.20;99.90
74513;DHT22;62992;52.052;8.550;2023-11-22T04:26:49;1.20;99.90
74513;DHT22;62992;52.052;8.550;2023-11-22T04:29:33;1.10;99.90
74513;DHT22;62992;52.052;8.550;2023-11-22T04:32:17;1.00;99.90
74513;DHT22;62992;52.052;8.550;2023-11-22T04:35:02;1.00;99.90
74513;DHT22;62992;52.052;8.550;2023-11-22T04:37:47;1.00;99.90
74513;DHT22;62992;52.052;8.550;2023-11-22T04:40:32;1.10;99.90
74513;DHT22;62992;52.052;8.550;2023-11-22T04:43:16;1.10;99.90
74513;DHT22;62992;52.052;8.550;2023-11-22T04:46:00;1.00;99.90
74513;DHT22;62992;52.052;8.550;2023-11-22T04:48:44;1.00;99.90
74513;DHT22;62992;52.052;8.550;2023-11-22T04:51:28;1.00;99.90
74513;DHT22;62992;52.052;8.550;2023-11-22T04:54:13;1.00;99.90
74513;DHT22;62992;52.052;8.550;2023-11-22T04:56:57;1.00;99.90
74513;DHT22;62992;52.052;8.550;2023-11-22T04:59:41;0.90;99.90
74513;DHT22;62992;52.052;8.550;2023-11-22T05:02:26;0.90;99.90
74513;DHT22;62992;52.052;8.550;2023-11-22T05:05:10;0.80;99.90
74513;DHT22;62992;52.052;8.550;2023-11-22T05:07:54;0.80;99.90
74513;DHT22;62992;52.052;8.550;2023-11-22T05:10:38;0.90;99.90
74513;DHT22;62992;52.052;8.550;2023-11-22T05:13:23;0.80;99.90
74513;DHT22;62992;52.052;8.550;2023-11-22T05:16:07;0.60;99.90
74513;DHT22;62992;52.052;8.550;2023-11-22T05:18:51;0.70;99.90
74513;DHT22;62992;52.052;8.550;2023-11-22T05:21:35;0.80;99.90
74513;DHT22;62992;52.052;8.550;2023-11-22T05:24:20;0.70;99.90
74513;DHT22;62992;52.052;8.550;2023-11-22T05:27:04;0.60;99.90
74513;DHT22;62992;52.052;8.550;2023-11-22T05:29:48;0.70;99.90
74513;DHT22;62992;52.052;8.550;2023-11-22T05:32:32;0.70;99.90
74513;DHT22;62992;52.052;8.550;2023-11-22T05:35:17;0.80;99.90
74513;DHT22;62992;52.052;8.550;2023-11-22T05:38:01;0.70;99.90
74513;DHT22;62992;52.052;8.550;2023-11-22T05:40:46;0.60;99.90
74513;DHT22;62992;52.052;8.550;2023-11-22T05:43:30;0.50;99.90
74513;DHT22;62992;52.052;8.550;2023-11-22T05:46:14;0.50;99.90
74513;DHT22;62992;52.052;8.550;2023-11-22T05:49:00;0.60;99.90
74513;DHT22;62992;52.052;8.550;2023-11-22T05:51:44;0.50;99.90
74513;DHT22;62992;52.052;8.550;2023-11-22T05:54:28;0.50;99.90
74513;DHT22;62992;52.052;8.550;2023-11-22T05:57:13;0.50;99.90
74513;DHT22;62992;52.052;8.550;2023-11-22T05:59:57;0.40;99.90
74513;DHT22;62992;52.052;8.550;2023-11-22T06:02:42;0.40;99.90
74513;DHT22;62992;52.052;8.550;2023-11-22T06:05:26;0.50;99.90
74513;DHT22;62992;52.052;8.550;2023-11-22T06:08:10;0.50;99.90
74513;DHT22;62992;52.052;8.550;2023-11-22T06:10:54;0.40;99.90
74513;DHT22;62992;52.052;8.550;2023-11-22T06:13:41;0.30;99.90
74513;DHT22;62992;52.052;8.550;2023-11-22T06:16:26;0.30;99.90
74513;DHT22;62992;52.052;8.550;2023-11-22T06:19:10;0.30;99.90
74513;DHT22;62992;52.052;8.550;2023-11-22T06:21:55;0.30;99.90
74513;DHT22;62992;52.052;8.550;2023-11-22T06:24:39;0.30;99.90
74513;DHT22;62992;52.052;8.550;2023-11-22T06:27:25;0.40;99.90
74513;DHT22;62992;52.052;8.550;2023-11-22T06:30:09;0.30;99.90
74513;DHT22;62992;52.052;8.550;2023-11-22T06:32:53;0.30;99.90
74513;DHT22;62992;52.052;8.550;2023-11-22T06:35:38;0.30;99.90
74513;DHT22;62992;52.052;8.550;2023-11-22T06:38:22;0.20;99.90
74513;DHT22;62992;52.052;8.550;2023-11-22T06:41:06;0.20;99.90
74513;DHT22;62992;52.052;8.550;2023-11-22T06:43:50;0.20;99.90
74513;DHT22;62992;52.052;8.550;2023-11-22T06:46:34;0.30;99.90
74513;DHT22;62992;52.052;8.550;2023-11-22T06:49:19;0.30;99.90
74513;DHT22;62992;52.052;8.550;2023-11-22T06:52:03;0.40;99.90
74513;DHT22;62992;52.052;8.550;2023-11-22T06:54:47;0.30;99.90
74513;DHT22;62992;52.052;8.550;2023-11-22T06:57:31;0.40;99.90
74513;DHT22;62992;52.052;8.550;2023-11-22T07:00:15;0.40;99.90
74513;DHT22;62992;52.052;8.550;2023-11-22T07:03:00;0.40;99.90
74513;DHT22;62992;52.052;8.550;2023-11-22T07:05:45;0.40;99.90
74513;DHT22;62992;52.052;8.550;2023-11-22T07:08:29;0.40;99.90
74513;DHT22;62992;52.052;8.550;2023-11-22T07:11:13;0.40;99.90
74513;DHT22;62992;52.052;8.550;2023-11-22T07:14:04;0.40;99.90
74513;DHT22;62992;52.052;8.550;2023-11-22T07:16:48;0.40;99.90
74513;DHT22;62992;52.052;8.550;2023-11-22T07:19:33;0.50;99.90
74513;DHT22;62992;52.052;8.550;2023-11-22T07:22:21;0.60;99.90
74513;DHT22;62992;52.052;8.550;2023-11-22T07:25:08;0.60;99.90
74513;DHT22;62992;52.052;8.550;2023-11-22T07:28:01;0.60;99.90
74513;DHT22;62992;52.052;8.550;2023-11-22T07:30:45;0.60;99.90
74513;DHT22;62992;52.052;8.550;2023-11-22T07:33:32;0.70;99.90
74513;DHT22;62992;52.052;8.550;2023-11-22T07:36:16;0.80;99.90
74513;DHT22;62992;52.052;8.550;2023-11-22T07:39:00;0.80;99.90
74513;DHT22;62992;52.052;8.550;2023-11-22T07:41:46;0.90;99.90
74513;DHT22;62992;52.052;8.550;2023-11-22T07:44:32;0.90;99.90
74513;DHT22;62992;52.052;8.550;2023-11-22T07:47:16;1.00;99.90
74513;DHT22;62992;52.052;8.550;2023-11-22T07:50:00;1.00;99.90
74513;DHT22;62992;52.052;8.550;2023-11-22T07:52:47;1.00;99.90
74513;DHT22;62992;52.052;8.550;2023-11-22T07:55:32;1.00;99.90
74513;DHT22;62992;52.052;8.550;2023-11-22T07:58:19;1.10;99.90
74513;DHT22;62992;52.052;8.550;2023-11-22T08:01:04;1.20;99.90
74513;DHT22;62992;52.052;8.550;2023-11-22T08:03:48;1.30;99.90
74513;DHT22;62992;52.052;8.550;2023-11-22T08:06:35;1.40;99.90
74513;DHT22;62992;52.052;8.550;2023-11-22T08:09:19;1.50;99.90
74513;DHT22;62992;52.052;8.550;2023-11-22T08:12:03;1.60;99.90
74513;DHT22;62992;52.052;8.550;2023-11-22T08:14:48;1.70;99.90
74513;DHT22;62992;52.052;8.550;2023-11-22T08:17:32;1.80;99.90
74513;DHT22;62992;52.052;8.550;2023-11-22T08:20:16;1.80;99.90
74513;DHT22;62992;52.052;8.550;2023-11-22T08:23:03;2.00;99.90
74513;DHT22;62992;52.052;8.550;2023-11-22T08:25:50;2.10;99.90
74513;DHT22;62992;52.052;8.550;2023-11-22T08:28:35;2.20;99.90
74513;DHT22;62992;52.052;8.550;2023-11-22T08:31:19;2.50;99.90
74513;DHT22;62992;52.052;8.550;2023-11-22T08:34:04;2.50;99.90
74513;DHT22;62992;52.052;8.550;2023-11-22T08:36:50;2.50;99.90
74513;DHT22;62992;52.052;8.550;2023-11-22T08:39:35;2.60;99.90
74513;DHT22;62992;52.052;8.550;2023-11-22T08:42:19;2.70;99.90
74513;DHT22;62992;52.052;8.550;2023-11-22T08:45:03;2.70;99.90
74513;DHT22;62992;52.052;8.550;2023-11-22T08:47:47;2.80;99.90
74513;DHT22;62992;52.052;8.550;2023-11-22T08:50:32;2.90;99.90
74513;DHT22;62992;52.052;8.550;2023-11-22T08:53:16;3.00;99.90
74513;DHT22;62992;52.052;8.550;2023-11-22T08:56:02;3.10;99.90
74513;DHT22;62992;52.052;8.550;2023-11-22T08:58:49;3.20;99.90
74513;DHT22;62992;52.052;8.550;2023-11-22T09:01:33;3.10;99.90
74513;DHT22;62992;52.052;8.550;2023-11-22T09:04:17;3.20;99.90
74513;DHT22;62992;52.052;8.550;2023-11-22T09:07:02;3.20;99.90
74513;DHT22;62992;52.052;8.550;2023-11-22T09:09:46;3.30;99.90
74513;DHT22;62992;52.052;8.550;2023-11-22T09:12:33;3.30;99.90
74513;DHT22;62992;52.052;8.550;2023-11-22T09:15:17;3.30;99.90
74513;DHT22;62992;52.052;8.550;2023-11-22T09:18:02;3.40;99.90
74513;DHT22;62992;52.052;8.550;2023-11-22T09:20:46;3.50;99.90
74513;DHT22;62992;52.052;8.550;2023-11-22T09:23:32;3.50;99.90
74513;DHT22;62992;52.052;8.550;2023-11-22T09:26:16;3.60;99.90
74513;DHT22;62992;52.052;8.550;2023-11-22T09:29:00;3.60;99.90
74513;DHT22;62992;52.052;8.550;2023-11-22T09:31:45;3.70;99.90
74513;DHT22;62992;52.052;8.550;2023-11-22T09:34:31;3.70;99.90
74513;DHT22;62992;52.052;8.550;2023-11-22T09:37:15;3.90;99.90
74513;DHT22;62992;52.052;8.550;2023-11-22T09:39:59;4.00;99.90
74513;DHT22;62992;52.052;8.550;2023-11-22T09:42:44;4.00;99.90
74513;DHT22;62992;52.052;8.550;2023-11-22T09:45:34;4.20;99.90
74513;DHT22;62992;52.052;8.550;2023-11-22T09:48:19;4.10;99.90
74513;DHT22;62992;52.052;8.550;2023-11-22T09:53:58;3.90;99.90
74513;DHT22;62992;52.052;8.550;2023-11-22T09:56:48;3.80;99.90
74513;DHT22;62992;52.052;8.550;2023-11-22T09:59:35;3.70;99.90
74513;DHT22;62992;52.052;8.550;2023-11-22T10:02:20;3.70;99.90
74513;DHT22;62992;52.052;8.550;2023-11-22T10:05:10;3.70;99.90
74513;DHT22;62992;52.052;8.550;2023-11-22T10:07:55;3.70;99.90
74513;DHT22;62992;52.052;8.550;2023-11-22T10:10:40;3.80;99.90
74513;DHT22;62992;52.052;8.550;2023-11-22T10:13:24;3.80;99.90
74513;DHT22;62992;52.052;8.550;2023-11-22T10:16:11;3.90;99.90
74513;DHT22;62992;52.052;8.550;2023-11-22T10:18:56;3.90;99.90
74513;DHT22;62992;52.052;8.550;2023-11-22T10:21:41;4.00;99.90
74513;DHT22;62992;52.052;8.550;2023-11-22T10:24:25;4.00;99.90
74513;DHT22;62992;52.052;8.550;2023-11-22T10:27:13;4.20;99.90
74513;DHT22;62992;52.052;8.550;2023-11-22T10:30:00;4.10;99.90
74513;DHT22;62992;52.052;8.550;2023-11-22T10:32:45;4.30;99.90
74513;DHT22;62992;52.052;8.550;2023-11-22T10:35:29;4.30;99.90
74513;DHT22;62992;52.052;8.550;2023-11-22T10:38:13;4.30;99.90
74513;DHT22;62992;52.052;8.550;2023-11-22T10:40:57;4.40;99.90
74513;DHT22;62992;52.052;8.550;2023-11-22T10:43:42;4.40;99.90
74513;DHT22;62992;52.052;8.550;2023-11-22T10:46:28;4.30;99.90
74513;DHT22;62992;52.052;8.550;2023-11-22T10:49:13;4.40;99.90
74513;DHT22;62992;52.052;8.550;2023-11-22T10:51:57;4.20;99.90
74513;DHT22;62992;52.052;8.550;2023-11-22T10:54:43;4.20;99.90
74513;DHT22;62992;52.052;8.550;2023-11-22T10:57:30;4.10;99.90
74513;DHT22;62992;52.052;8.550;2023-11-22T11:00:15;4.20;99.90
74513;DHT22;62992;52.052;8.550;2023-11-22T11:03:01;4.20;99.90
74513;DHT22;62992;52.052;8.550;2023-11-22T11:06:20;4.20;99.90
74513;DHT22;62992;52.052;8.550;2023-11-22T11:08:57;4.20;99.90
74513;DHT22;62992;52.052;8.550;2023-11-22T11:11:43;4.00;99.90
74513;DHT22;62992;52.052;8.550;2023-11-22T11:14:28;4.00;99.90
74513;DHT22;62992;52.052;8.550;2023-11-22T11:17:13;4.10;99.90
74513;DHT22;62992;52.052;8.550;2023-11-22T11:19:58;4.10;99.90
74513;DHT22;62992;52.052;8.550;2023-11-22T11:22:42;4.30;99.90
74513;DHT22;62992;52.052;8.550;2023-11-22T11:25:27;4.30;99.90
74513;DHT22;62992;52.052;8.550;2023-11-22T11:28:11;4.30;99.90
74513;DHT22;62992;52.052;8.550;2023-11-22T11:30:56;4.30;99.90
74513;DHT22;62992;52.052;8.550;2023-11-22T11:36:37;4.20;99.90
74513;DHT22;62992;52.052;8.550;2023-11-22T11:39:25;4.00;99.90
74513;DHT22;62992;52.052;8.550;2023-11-22T11:42:13;4.10;99.90
74513;DHT22;62992;52.052;8.550;2023-11-22T11:45:04;4.00;99.90
74513;DHT22;62992;52.052;8.550;2023-11-22T11:47:50;4.10;99.90
74513;DHT22;62992;52.052;8.550;2023-11-22T11:50:34;4.10;99.90
74513;DHT22;62992;52.052;8.550;2023-11-22T11:53:19;4.20;99.90
74513;DHT22;62992;52.052;8.550;2023-11-22T11:56:04;4.10;99.90
74513;DHT22;62992;52.052;8.550;2023-11-22T11:58:49;4.10;99.90
74513;DHT22;62992;52.052;8.550;2023-11-22T12:01:33;4.30;99.90
74513;DHT22;62992;52.052;8.550;2023-11-22T12:04:17;4.40;99.90
74513;DHT22;62992;52.052;8.550;2023-11-22T12:07:01;4.40;99.90
74513;DHT22;62992;52.052;8.550;2023-11-22T12:09:45;4.40;99.90
74513;DHT22;62992;52.052;8.550;2023-11-22T12:12:31;4.40;99.90
74513;DHT22;62992;52.052;8.550;2023-11-22T12:15:15;4.30;99.90
74513;DHT22;62992;52.052;8.550;2023-11-22T12:17:59;4.30;99.90
74513;DHT22;62992;52.052;8.550;2023-11-22T12:20:54;4.30;99.90
74513;DHT22;62992;52.052;8.550;2023-11-22T12:23:40;4.30;99.90
74513;DHT22;62992;52.052;8.550;2023-11-22T12:26:24;4.30;99.90
74513;DHT22;62992;52.052;8.550;2023-11-22T12:29:08;4.40;99.90
74513;DHT22;62992;52.052;8.550;2023-11-22T12:31:55;4.30;99.90
74513;DHT22;62992;52.052;8.550;2023-11-22T12:34:40;4.30;99.90
74513;DHT22;62992;52.052;8.550;2023-11-22T12:37:26;4.30;99.90
74513;DHT22;62992;52.052;8.550;2023-11-22T12:40:11;4.30;99.90
74513;DHT22;62992;52.052;8.550;2023-11-22T12:42:56;4.40;99.90
74513;DHT22;62992;52.052;8.550;2023-11-22T12:45:40;4.30;99.90
74513;DHT22;62992;52.052;8.550;2023-11-22T12:48:25;4.20;99.90
74513;DHT22;62992;52.052;8.550;2023-11-22T12:51:16;4.30;99.90
74513;DHT22;62992;52.052;8.550;2023-11-22T12:54:10;4.30;99.90
74513;DHT22;62992;52.052;8.550;2023-11-22T12:56:54;4.40;99.90
74513;DHT22;62992;52.052;8.550;2023-11-22T12:59:41;4.50;99.90
74513;DHT22;62992;52.052;8.550;2023-11-22T13:02:25;4.50;99.90
74513;DHT22;62992;52.052;8.550;2023-11-22T13:05:10;4.50;99.90
74513;DHT22;62992;52.052;8.550;2023-11-22T13:07:57;4.60;99.90
74513;DHT22;62992;52.052;8.550;2023-11-22T13:10:45;4.60;99.90
74513;DHT22;62992;52.052;8.550;2023-11-22T13:13:37;4.50;99.90
74513;DHT22;62992;52.052;8.550;2023-11-22T13:16:22;4.50;99.90
74513;DHT22;62992;52.052;8.550;2023-11-22T13:19:06;4.50;99.90
74513;DHT22;62992;52.052;8.550;2023-11-22T13:21:52;4.40;99.90
74513;DHT22;62992;52.052;8.550;2023-11-22T13:24:36;4.50;99.90
74513;DHT22;62992;52.052;8.550;2023-11-22T13:27:21;4.50;99.90
74513;DHT22;62992;52.052;8.550;2023-11-22T13:30:06;4.50;99.90
74513;DHT22;62992;52.052;8.550;2023-11-22T13:32:53;4.40;99.90
74513;DHT22;62992;52.052;8.550;2023-11-22T13:35:40;4.40;99.90
74513;DHT22;62992;52.052;8.550;2023-11-22T13:38:25;4.30;99.90
74513;DHT22;62992;52.052;8.550;2023-11-22T13:41:08;4.40;99.90
74513;DHT22;62992;52.052;8.550;2023-11-22T13:43:53;4.30;99.90
74513;DHT22;62992;52.052;8.550;2023-11-22T13:46:37;4.30;99.90
74513;DHT22;62992;52.052;8.550;2023-11-22T13:49:24;4.20;99.90
74513;DHT22;62992;52.052;8.550;2023-11-22T13:52:08;4.20;99.90
74513;DHT22;62992;52.052;8.550;2023-11-22T13:54:52;4.20;99.90
74513;DHT22;62992;52.052;8.550;2023-11-22T13:57:40;4.20;99.90
74513;DHT22;62992;52.052;8.550;2023-11-22T14:00:25;4.20;99.90
74513;DHT22;62992;52.052;8.550;2023-11-22T14:03:16;4.10;99.90
74513;DHT22;62992;52.052;8.550;2023-11-22T14:06:00;4.20;99.90
74513;DHT22;62992;52.052;8.550;2023-11-22T14:08:44;4.20;99.90
74513;DHT22;62992;52.052;8.550;2023-11-22T14:11:29;4.10;99.90
74513;DHT22;62992;52.052;8.550;2023-11-22T14:14:14;4.10;99.90
74513;DHT22;62992;52.052;8.550;2023-11-22T14:16:58;4.20;99.90
74513;DHT22;62992;52.052;8.550;2023-11-22T14:19:42;4.10;99.90
74513;DHT22;62992;52.052;8.550;2023-11-22T14:22:26;4.10;99.90
74513;DHT22;62992;52.052;8.550;2023-11-22T14:25:11;4.00;99.90
74513;DHT22;62992;52.052;8.550;2023-11-22T14:27:56;4.00;99.90
74513;DHT22;62992;52.052;8.550;2023-11-22T14:30:41;4.00;99.90
74513;DHT22;62992;52.052;8.550;2023-11-22T14:33:26;3.90;99.90
74513;DHT22;62992;52.052;8.550;2023-11-22T14:36:14;4.00;99.90
74513;DHT22;62992;52.052;8.550;2023-11-22T14:38:58;3.90;99.90
74513;DHT22;62992;52.052;8.550;2023-11-22T14:41:42;3.90;99.90
74513;DHT22;62992;52.052;8.550;2023-11-22T14:44:29;3.80;99.90
74513;DHT22;62992;52.052;8.550;2023-11-22T14:47:13;3.80;99.90
74513;DHT22;62992;52.052;8.550;2023-11-22T14:50:02;3.80;99.90
74513;DHT22;62992;52.052;8.550;2023-11-22T14:52:49;3.80;99.90
74513;DHT22;62992;52.052;8.550;2023-11-22T14:55:33;3.80;99.90
74513;DHT22;62992;52.052;8.550;2023-11-22T14:58:22;3.90;99.90
74513;DHT22;62992;52.052;8.550;2023-11-22T15:01:07;3.90;99.90
74513;DHT22;62992;52.052;8.550;2023-11-22T15:03:53;3.90;99.90
74513;DHT22;62992;52.052;8.550;2023-11-22T15:06:37;3.90;99.90
74513;DHT22;62992;52.052;8.550;2023-11-22T15:09:22;3.90;99.90
74513;DHT22;62992;52.052;8.550;2023-11-22T15:12:06;3.90;99.90
74513;DHT22;62992;52.052;8.550;2023-11-22T15:14:50;4.00;99.90
74513;DHT22;62992;52.052;8.550;2023-11-22T15:17:34;3.80;99.90
74513;DHT22;62992;52.052;8.550;2023-11-22T15:20:18;3.80;99.90
74513;DHT22;62992;52.052;8.550;2023-11-22T15:23:03;3.70;99.90
74513;DHT22;62992;52.052;8.550;2023-11-22T15:25:47;3.80;99.90
74513;DHT22;62992;52.052;8.550;2023-11-22T15:28:31;3.80;99.90
74513;DHT22;62992;52.052;8.550;2023-11-22T15:31:18;3.70;99.90
74513;DHT22;62992;52.052;8.550;2023-11-22T15:34:02;3.80;99.90
74513;DHT22;62992;52.052;8.550;2023-11-22T15:36:47;3.70;99.90
74513;DHT22;62992;52.052;8.550;2023-11-22T15:39:31;3.70;99.90
74513;DHT22;62992;52.052;8.550;2023-11-22T15:42:15;3.70;99.90
74513;DHT22;62992;52.052;8.550;2023-11-22T15:45:00;3.60;99.90
74513;DHT22;62992;52.052;8.550;2023-11-22T15:47:44;3.60;99.90
74513;DHT22;62992;52.052;8.550;2023-11-22T15:50:29;3.70;99.90
74513;DHT22;62992;52.052;8.550;2023-11-22T15:53:13;3.70;99.90
74513;DHT22;62992;52.052;8.550;2023-11-22T15:55:57;3.70;99.90
74513;DHT22;62992;52.052;8.550;2023-11-22T15:58:44;3.70;99.90
74513;DHT22;62992;52.052;8.550;2023-11-22T16:01:29;3.60;99.90
74513;DHT22;62992;52.052;8.550;2023-11-22T16:04:13;3.70;99.90
74513;DHT22;62992;52.052;8.550;2023-11-22T16:06:57;3.60;99.90
74513;DHT22;62992;52.052;8.550;2023-11-22T16:09:41;3.70;99.90
74513;DHT22;62992;52.052;8.550;2023-11-22T16:12:27;3.60;99.90
74513;DHT22;62992;52.052;8.550;2023-11-22T16:15:11;3.60;99.90
74513;DHT22;62992;52.052;8.550;2023-11-22T16:17:58;3.60;99.90
74513;DHT22;62992;52.052;8.550;2023-11-22T16:20:43;3.70;99.90
74513;DHT22;62992;52.052;8.550;2023-11-22T16:23:27;3.70;99.90
74513;DHT22;62992;52.052;8.550;2023-11-22T16:26:12;3.80;99.90
74513;DHT22;62992;52.052;8.550;2023-11-22T16:28:56;3.80;99.90
74513;DHT22;62992;52.052;8.550;2023-11-22T16:31:41;3.80;99.90
74513;DHT22;62992;52.052;8.550;2023-11-22T16:34:25;3.70;99.90
74513;DHT22;62992;52.052;8.550;2023-11-22T16:37:10;3.70;99.90
74513;DHT22;62992;52.052;8.550;2023-11-22T16:39:54;3.80;99.90
74513;DHT22;62992;52.052;8.550;2023-11-22T16:42:39;3.80;99.90
74513;DHT22;62992;52.052;8.550;2023-11-22T16:45:23;3.70;99.90
74513;DHT22;62992;52.052;8.550;2023-11-22T16:48:09;3.70;99.90
74513;DHT22;62992;52.052;8.550;2023-11-22T16:50:54;3.70;99.90
74513;DHT22;62992;52.052;8.550;2023-11-22T16:53:38;3.70;99.90
74513;DHT22;62992;52.052;8.550;2023-11-22T16:56:24;3.70;99.90
74513;DHT22;62992;52.052;8.550;2023-11-22T16:59:08;3.70;99.90
74513;DHT22;62992;52.052;8.550;2023-11-22T17:01:52;3.70;99.90
74513;DHT22;62992;52.052;8.550;2023-11-22T17:04:37;3.70;99.90
74513;DHT22;62992;52.052;8.550;2023-11-22T17:07:21;3.60;99.90
74513;DHT22;62992;52.052;8.550;2023-11-22T17:10:06;3.70;99.90
74513;DHT22;62992;52.052;8.550;2023-11-22T17:12:50;3.70;99.90
74513;DHT22;62992;52.052;8.550;2023-11-22T17:15:34;3.70;99.90
74513;DHT22;62992;52.052;8.550;2023-11-22T17:18:19;3.80;99.90
74513;DHT22;62992;52.052;8.550;2023-11-22T17:21:03;3.70;99.90
74513;DHT22;62992;52.052;8.550;2023-11-22T17:23:49;3.80;99.90
74513;DHT22;62992;52.052;8.550;2023-11-22T17:26:33;3.80;99.90
74513;DHT22;62992;52.052;8.550;2023-11-22T17:29:17;3.80;99.90
74513;DHT22;62992;52.052;8.550;2023-11-22T17:32:01;3.80;99.90
74513;DHT22;62992;52.052;8.550;2023-11-22T17:34:46;3.80;99.90
74513;DHT22;62992;52.052;8.550;2023-11-22T17:37:30;3.80;99.90
74513;DHT22;62992;52.052;8.550;2023-11-22T17:40:14;3.70;99.90
74513;DHT22;62992;52.052;8.550;2023-11-22T17:42:59;3.70;99.90